CST,Max TemperatureF,Mean TemperatureF,Min TemperatureF,Max Dew PointF,MeanDew PointF,Min DewpointF,Max Humidity, Mean Humidity, Min Humidity, Max Sea Level PressureIn, Mean Sea Level PressureIn, Min Sea Level PressureIn, Max VisibilityMiles, Mean VisibilityMiles, Min VisibilityMiles, Max Wind SpeedMPH, Mean Wind SpeedMPH, Max Gust SpeedMPH,PrecipitationIn, CloudCover, Events, WindDirDegrees
2013-1-1,28,20,10,20,16,7,93,84,69,30.35,30.25,30.15,9,4,1,15,8,23,0.00,6,Snow,358
2013-1-2,36,23,10,27,18,8,92,79,67,30.33,30.24,30.17,10,9,5,14,6,,0.00,1,,292
2013-1-3,35,24,12,23,16,9,88,76,52,30.49,30.42,30.35,10,8,0,10,7,,0.00,3,Fog,306
2013-1-4,46,29,12,25,19,9,88,69,40,30.43,30.32,30.21,10,10,6,17,4,,0.00,0,,202
2013-1-5,46,37,28,30,25,18,85,67,46,30.30,30.19,30.09,10,10,10,20,11,22,0.00,2,,248
2013-1-6,51,34,18,22,19,14,85,61,31,30.43,30.33,30.24,10,10,10,13,8,,0.00,0,,248
2013-1-7,53,40,26,25,23,19,75,53,31,30.22,30.09,29.99,10,10,10,21,13,,0.00,0,,189
2013-1-8,57,42,24,30,26,20,84,63,33,30.22,30.02,29.91,10,10,7,20,10,28,0.00,0,,201
2013-1-9,53,38,24,32,28,20,88,64,41,30.43,30.34,30.25,10,10,8,12,5,,0.00,1,,30
2013-1-10,46,44,41,45,42,33,100,92,65,30.22,29.89,29.71,10,3,0,14,8,22,0.10,8,Fog-Rain,147
2013-1-11,57,47,37,45,40,16,100,76,24,29.86,29.62,29.48,10,9,2,28,17,34,0.00,3,,202
2013-1-12,37,28,18,28,13,7,72,58,40,30.17,30.05,29.88,10,10,10,18,13,24,0.00,6,,351
2013-1-13,28,19,10,8,5,1,73,58,34,30.40,30.30,30.16,10,10,10,18,11,25,0.00,0,,348
2013-1-14,32,19,6,14,8,2,83,60,35,30.53,30.43,30.37,10,10,10,9,3,,0.00,1,,31
2013-1-15,36,23,10,13,11,6,84,63,39,30.37,30.29,30.21,10,10,10,7,1,,0.00,1,,241
2013-1-16,55,37,19,29,21,12,77,58,35,30.26,30.14,30.06,10,10,10,16,6,,0.00,0,,303
2013-1-17,55,40,25,30,25,21,88,63,34,30.51,30.42,30.29,10,10,10,12,7,,0.00,0,,288
2013-1-18,63,46,30,31,28,24,79,55,27,30.38,30.18,30.02,10,10,10,25,11,30,0.00,0,,195
2013-1-19,64,47,30,30,24,21,82,51,19,30.25,30.10,30.01,10,10,10,15,6,22,0.00,0,,311
2013-1-20,48,36,21,25,20,10,79,57,37,30.44,30.29,30.20,10,10,10,18,8,26,0.00,0,,53
2013-1-21,37,26,14,13,11,8,80,57,33,30.45,30.38,30.29,10,10,10,9,5,,0.00,0,,264
2013-1-22,41,28,16,18,13,8,77,61,38,30.30,30.26,30.20,10,10,10,10,7,,0.00,0,,115
2013-1-23,55,35,15,27,19,11,88,59,33,30.36,30.23,30.14,10,10,8,15,3,26,0.00,0,,33
2013-1-24,28,22,17,17,11,6,71,58,41,30.43,30.29,30.18,10,10,10,13,9,22,0.00,5,,74
2013-1-25,53,36,18,25,19,12,81,54,30,30.28,30.21,30.14,10,10,6,7,2,,0.00,1,,312
2013-1-26,57,42,28,41,31,22,89,61,33,30.22,30.11,29.96,10,9,6,23,9,26,0.00,3,Rain,165
2013-1-27,69,56,42,55,46,37,100,83,51,29.97,29.79,29.66,10,5,0,22,17,32,0.00,5,Fog-Rain,179
2013-1-28,73,55,37,58,44,36,100,76,28,29.81,29.72,29.59,10,7,0,28,10,39,0.00,1,Fog,176
2013-1-29,61,47,33,56,34,29,93,82,65,29.68,29.62,29.54,10,8,2,20,13,30,0.00,7,Snow,346
2013-1-30,33,26,19,30,22,14,88,78,58,30.00,29.85,29.66,10,6,2,28,19,41,0.00,6,Snow,331
2013-1-31,27,20,12,20,13,6,85,69,57,30.47,30.23,29.98,10,10,10,20,7,30,0.00,2,,356